Ball Ground, Georgia
Current Conditions -  °F | °C
As of 6:15 AM on Sunday 23 Nov 2014 (Local Time) from KCNI Reporting Station
Light Rain Light Rain  
Wind Chill: 41°   Ceiling: 900
Heat Index: 45°   Visibility: 4mi
Dew Point: 41°   Wind: 7mph
Humidity: 87%   Direction: 80°E
Pressure: 30.08"   Gusts: NA
Location:  34.34°N, 84.38°W
Report Text: KCNI 231115Z AUTO 08006KT 4SM -RA OVC009 07/05 A3008 RMK AO2
Loading
Personal Weather Stations






























Interactive Weather Map New forecast layout! Learn more

10-Day Weather Forecast

Advertisements
Track Severe Weather on mobile